Time;durP1;ratioP1;P1;durP2;ratioP2;P2;SDS_P1;SDS_P2;PMS_P1;PMS_P2;Temp;Humidity;BMP_temperature;BMP_pressure;BME280_temperature;BME280_humidity;BME280_pressure;Samples;Min_cycle;Max_cycle;Signal;HPM_P1;HPM_P2
2021/07/18 00:01:36;;;;;;;11.88;5.13;;;;;;;14.43;88.44;102751.69;5015832;28;20050;-69
2021/07/18 00:04:02;;;;;;;8.40;5.20;;;;;;;14.41;88.51;102742.09;5015448;28;20034;-70
2021/07/18 00:06:27;;;;;;;13.82;5.15;;;;;;;14.37;88.25;102740.63;5016408;28;20120;-69
2021/07/18 00:08:52;;;;;;;14.25;5.40;;;;;;;14.34;88.53;102741.69;5015359;28;20536;-70
2021/07/18 00:11:18;;;;;;;10.23;4.75;;;;;;;14.31;88.58;102739.25;5015860;28;20030;-69
2021/07/18 00:13:43;;;;;;;6.90;4.50;;;;;;;14.27;88.39;102737.78;5014540;28;20026;-69
2021/07/18 00:16:08;;;;;;;9.82;4.97;;;;;;;14.24;88.78;102736.22;5013751;28;20030;-69
2021/07/18 00:18:34;;;;;;;10.18;4.35;;;;;;;14.21;88.66;102735.56;5015504;28;20049;-70
2021/07/18 00:20:59;;;;;;;10.15;5.55;;;;;;;14.18;89.00;102730.44;5015133;28;20033;-69
2021/07/18 00:23:24;;;;;;;13.48;5.60;;;;;;;14.16;89.02;102729.72;5015562;28;20032;-69
2021/07/18 00:25:50;;;;;;;11.05;5.55;;;;;;;14.12;89.24;102726.41;5015553;28;20393;-69
2021/07/18 00:28:15;;;;;;;11.98;5.53;;;;;;;14.08;89.36;102720.44;5014683;28;20108;-69
2021/07/18 00:30:41;;;;;;;8.20;4.47;;;;;;;14.01;88.77;102724.56;5015344;28;20080;-69
2021/07/18 00:33:06;;;;;;;4.97;3.97;;;;;;;13.98;88.44;102731.97;5014843;28;20453;-68
2021/07/18 00:35:33;;;;;;;11.80;5.35;;;;;;;13.98;89.00;102731.97;5013936;28;20037;-69
2021/07/18 00:37:59;;;;;;;9.65;5.32;;;;;;;13.95;89.31;102727.69;5014791;28;20033;-69
2021/07/18 00:40:24;;;;;;;10.82;5.40;;;;;;;13.95;89.66;102730.38;5015077;28;20084;-69
2021/07/18 00:42:50;;;;;;;10.10;5.93;;;;;;;13.95;89.55;102735.72;5015103;28;20030;-69
2021/07/18 00:45:15;;;;;;;11.80;5.72;;;;;;;13.92;89.58;102731.44;5014542;28;20034;-69
2021/07/18 00:47:42;;;;;;;11.32;6.07;;;;;;;13.91;89.87;102732.44;5015053;28;20109;-69
2021/07/18 00:50:11;;;;;;;14.63;5.70;;;;;;;13.86;89.62;102729.22;5014471;28;20041;-69
2021/07/18 00:52:37;;;;;;;12.02;5.40;;;;;;;13.84;89.77;102732.97;5015064;28;20034;-69
2021/07/18 00:55:06;;;;;;;12.10;6.28;;;;;;;13.84;90.04;102730.31;5014403;28;20536;-69
2021/07/18 00:57:33;;;;;;;10.65;6.05;;;;;;;13.84;90.18;102728.50;5014879;28;20030;-70
2021/07/18 01:00:08;;;;;;;13.40;6.80;;;;;;;13.87;90.15;102736.31;5014287;28;20050;-70
2021/07/18 01:02:33;;;;;;;14.10;7.28;;;;;;;13.90;90.19;102724.53;5014905;28;20514;-69
2021/07/18 01:04:59;;;;;;;12.68;6.78;;;;;;;13.90;90.18;102732.56;5014141;28;20121;-70
2021/07/18 01:07:25;;;;;;;11.90;7.22;;;;;;;13.89;90.62;102726.31;5014793;28;20034;-69
2021/07/18 01:09:51;;;;;;;13.85;6.35;;;;;;;13.87;90.52;102727.44;5014704;28;20084;-69
2021/07/18 01:12:17;;;;;;;17.05;7.60;;;;;;;13.86;90.68;102721.22;5012757;28;20478;-69
2021/07/18 01:14:44;;;;;;;13.85;7.35;;;;;;;13.87;90.78;102724.75;5014547;28;20141;-69
2021/07/18 01:17:09;;;;;;;18.50;7.68;;;;;;;13.87;90.43;102722.94;5013712;28;20091;-69
2021/07/18 01:19:38;;;;;;;13.25;7.40;;;;;;;13.86;90.72;102720.38;5014250;28;20474;-68
2021/07/18 01:22:03;;;;;;;13.20;7.25;;;;;;;13.85;90.78;102726.69;5013863;28;20046;-70
2021/07/18 01:24:29;;;;;;;17.40;8.68;;;;;;;13.82;90.72;102725.06;5014491;28;20145;-69
2021/07/18 01:26:56;;;;;;;14.50;7.25;;;;;;;13.81;90.64;102717.16;5014224;28;20037;-69
2021/07/18 01:29:22;;;;;;;17.55;8.65;;;;;;;13.80;91.03;102720.81;5013632;28;20104;-69
2021/07/18 01:31:47;;;;;;;18.70;8.20;;;;;;;13.80;91.16;102710.13;5014203;28;20076;-69
2021/07/18 01:34:13;;;;;;;14.88;7.40;;;;;;;13.77;90.73;102710.34;5013587;28;20061;-69
2021/07/18 01:36:39;;;;;;;14.23;7.75;;;;;;;13.77;90.99;102711.19;5014094;28;20038;-69
2021/07/18 01:39:09;;;;;;;15.82;8.35;;;;;;;13.81;91.09;102709.13;5013493;28;20033;-70
2021/07/18 01:41:35;;;;;;;15.50;7.82;;;;;;;13.79;91.13;102709.25;5014048;28;20069;-69
2021/07/18 01:44:05;;;;;;;18.40;9.25;;;;;;;13.82;91.42;102702.81;5013840;28;20061;-70
2021/07/18 01:46:32;;;;;;;16.35;9.00;;;;;;;13.83;91.22;102701.88;5013917;28;20041;-69
2021/07/18 01:48:58;;;;;;;18.35;8.02;;;;;;;13.83;91.46;102705.38;5014324;28;20123;-69
2021/07/18 01:51:27;;;;;;;14.95;8.63;;;;;;;13.83;91.43;102707.22;5013507;28;20112;-69
2021/07/18 01:53:55;;;;;;;18.77;8.43;;;;;;;13.81;91.62;102703.78;5013833;28;20030;-69
2021/07/18 01:56:21;;;;;;;14.00;8.43;;;;;;;13.79;91.45;102706.56;5013150;28;20034;-69
2021/07/18 01:58:51;;;;;;;14.23;7.95;;;;;;;13.75;91.37;102703.28;5013387;28;20026;-69
2021/07/18 02:01:18;;;;;;;17.88;8.75;;;;;;;13.78;91.44;102698.66;5013069;28;20029;-69
2021/07/18 02:03:45;;;;;;;15.48;8.65;;;;;;;13.81;91.17;102698.44;5013971;28;20037;-69
2021/07/18 02:06:11;;;;;;;13.68;7.70;;;;;;;13.80;91.57;102702.09;5013117;28;20038;-69
2021/07/18 02:08:37;;;;;;;18.55;8.90;;;;;;;13.77;91.13;102697.81;5013558;28;20038;-69
2021/07/18 02:11:03;;;;;;;18.27;8.50;;;;;;;13.78;91.66;102698.66;5013429;28;20501;-69
2021/07/18 02:13:28;;;;;;;17.17;8.48;;;;;;;13.75;91.74;102702.44;5012780;28;20148;-69
2021/07/18 02:15:54;;;;;;;12.90;8.30;;;;;;;13.71;91.54;102699.13;5013514;28;20036;-69
2021/07/18 02:18:19;;;;;;;13.48;7.53;;;;;;;13.68;91.45;102698.50;5011676;28;20034;-70
2021/07/18 02:20:45;;;;;;;14.07;7.45;;;;;;;13.62;91.17;102707.00;5013415;28;20048;-69
2021/07/18 02:23:11;;;;;;;13.80;8.07;;;;;;;13.57;90.92;102707.34;5012790;28;20188;-69
2021/07/18 02:25:36;;;;;;;14.93;7.60;;;;;;;13.54;90.94;102694.16;5013240;28;20072;-69
2021/07/18 02:28:02;;;;;;;16.15;7.53;;;;;;;13.52;91.39;102696.13;5013136;28;20647;-69
2021/07/18 02:30:29;;;;;;;15.00;7.20;;;;;;;13.51;91.33;102697.06;5012464;28;20362;-69
2021/07/18 02:32:55;;;;;;;14.40;8.23;;;;;;;13.48;91.15;102698.19;5011894;28;20049;-69
2021/07/18 02:35:22;;;;;;;16.30;7.47;;;;;;;13.44;91.08;102688.66;5012341;28;20038;-69
2021/07/18 02:37:49;;;;;;;8.43;5.72;;;;;;;13.39;91.01;102699.69;5011833;28;20375;-69
2021/07/18 02:40:16;;;;;;;13.57;6.47;;;;;;;13.36;90.70;102693.69;5012473;28;20026;-69
2021/07/18 02:42:42;;;;;;;17.60;8.85;;;;;;;13.36;90.88;102699.06;5013277;28;20041;-69
2021/07/18 02:45:10;;;;;;;15.27;7.97;;;;;;;13.35;91.46;102692.03;5012830;28;20474;-71
2021/07/18 02:47:36;;;;;;;11.57;6.18;;;;;;;13.29;91.00;102693.28;5012938;28;20030;-69
2021/07/18 02:50:05;;;;;;;13.27;6.78;;;;;;;13.26;91.12;102690.00;5012974;28;20084;-69
2021/07/18 02:52:30;;;;;;;10.55;6.43;;;;;;;13.21;90.80;102695.63;5011025;28;20029;-69
2021/07/18 02:54:55;;;;;;;9.80;6.20;;;;;;;13.17;90.73;102694.19;5012752;28;20046;-69
2021/07/18 02:57:21;;;;;;;14.48;6.80;;;;;;;13.16;90.72;102681.78;5012154;28;20120;-69
2021/07/18 02:59:46;;;;;;;15.27;7.68;;;;;;;13.15;91.17;102680.94;5010871;28;20516;-69
2021/07/18 03:02:12;;;;;;;12.57;7.70;;;;;;;13.16;91.32;102689.78;5012327;28;20025;-70
2021/07/18 03:04:37;;;;;;;15.65;8.32;;;;;;;13.18;91.37;102693.19;5013032;28;20073;-69
2021/07/18 03:07:03;;;;;;;12.35;6.72;;;;;;;13.14;91.22;102681.03;5011528;28;20066;-69
2021/07/18 03:09:28;;;;;;;17.40;8.38;;;;;;;13.08;90.90;102689.47;5011955;28;20036;-69
2021/07/18 03:11:54;;;;;;;12.05;7.38;;;;;;;13.05;90.98;102682.56;5012458;28;20041;-69
2021/07/18 03:14:20;;;;;;;14.82;8.57;;;;;;;13.06;91.21;102686.91;5012026;28;20088;-69
2021/07/18 03:16:47;;;;;;;15.80;8.40;;;;;;;13.05;91.27;102674.53;5012642;28;20390;-69
2021/07/18 03:19:13;;;;;;;18.70;9.38;;;;;;;13.03;91.30;102676.44;5010603;28;20398;-70
2021/07/18 03:21:39;;;;;;;16.67;8.85;;;;;;;13.02;91.72;102674.75;5012256;28;20029;-69
2021/07/18 03:24:04;;;;;;;13.80;8.05;;;;;;;12.97;91.30;102669.75;5012342;28;20116;-69
2021/07/18 03:26:30;;;;;;;9.05;6.43;;;;;;;12.92;91.22;102666.53;5011706;28;20034;-69
2021/07/18 03:28:55;;;;;;;11.35;6.13;;;;;;;12.89;90.89;102669.44;5012757;28;20164;-69
2021/07/18 03:31:21;;;;;;;21.02;8.55;;;;;;;12.92;91.31;102671.88;5011782;28;20030;-69
2021/07/18 03:33:47;;;;;;;12.70;7.22;;;;;;;12.89;91.37;102669.44;5012724;28;20030;-69
2021/07/18 03:36:13;;;;;;;11.88;7.13;;;;;;;12.83;90.88;102662.69;5012322;28;20042;-69
2021/07/18 03:38:39;;;;;;;12.85;7.88;;;;;;;12.79;90.59;102663.03;5010379;28;20030;-70
2021/07/18 03:41:04;;;;;;;15.10;7.47;;;;;;;12.77;90.77;102662.31;5012295;28;20336;-69
2021/07/18 03:43:29;;;;;;;16.15;8.70;;;;;;;12.76;90.71;102660.59;5012098;28;20070;-69
2021/07/18 03:45:55;;;;;;;18.02;10.13;;;;;;;12.82;91.46;102661.00;5012155;28;20099;-69
2021/07/18 03:48:20;;;;;;;20.42;9.27;;;;;;;12.87;91.52;102661.53;5011659;28;20069;-70
2021/07/18 03:50:47;;;;;;;18.23;9.82;;;;;;;12.90;91.81;102664.94;5012156;28;20100;-69
2021/07/18 03:53:12;;;;;;;17.65;9.52;;;;;;;12.91;91.89;102663.97;5012123;28;20045;-69
2021/07/18 03:55:37;;;;;;;14.75;8.10;;;;;;;12.88;92.06;102668.59;5011423;28;20034;-69
2021/07/18 03:58:03;;;;;;;14.88;7.00;;;;;;;12.85;91.52;102670.59;5010974;28;20425;-69
2021/07/18 04:00:28;;;;;;;12.85;7.18;;;;;;;12.81;91.52;102674.47;5011380;28;20060;-69
2021/07/18 04:02:53;;;;;;;16.02;9.93;;;;;;;12.84;91.56;102669.75;5012163;28;20125;-69
2021/07/18 04:05:19;;;;;;;20.85;9.35;;;;;;;12.89;91.63;102672.09;5010359;28;20485;-69
2021/07/18 04:07:44;;;;;;;17.80;8.70;;;;;;;12.90;91.93;102676.50;5011934;28;20042;-69
2021/07/18 04:10:10;;;;;;;17.95;8.63;;;;;;;12.91;91.91;102680.84;5013697;28;20100;-69
2021/07/18 04:12:35;;;;;;;18.10;9.68;;;;;;;12.93;91.76;102676.28;5015141;28;20026;-69
2021/07/18 04:15:01;;;;;;;15.88;9.60;;;;;;;12.96;91.71;102678.72;5015570;28;20029;-69
2021/07/18 04:17:26;;;;;;;16.92;9.43;;;;;;;12.98;92.02;102675.94;5014896;28;20038;-69
2021/07/18 04:19:52;;;;;;;15.38;9.07;;;;;;;12.99;92.12;102670.47;5015598;28;20470;-69
2021/07/18 04:22:17;;;;;;;20.23;9.95;;;;;;;13.01;91.82;102671.22;5015444;28;20453;-69
2021/07/18 04:24:42;;;;;;;21.33;10.23;;;;;;;13.03;91.98;102673.78;5014943;28;20030;-69
2021/07/18 04:27:08;;;;;;;14.35;8.55;;;;;;;13.05;92.19;102672.72;5015307;28;20033;-69
2021/07/18 04:29:33;;;;;;;19.13;10.45;;;;;;;13.09;92.09;102675.16;5014818;28;20046;-69
2021/07/18 04:31:59;;;;;;;16.73;9.65;;;;;;;13.16;91.91;102673.75;5015653;28;20137;-69
2021/07/18 04:34:24;;;;;;;21.35;11.15;;;;;;;13.27;92.26;102678.31;5014548;28;20038;-70
2021/07/18 04:36:49;;;;;;;17.95;10.63;;;;;;;13.35;92.07;102670.63;5015162;28;20037;-69
2021/07/18 04:39:15;;;;;;;23.45;10.98;;;;;;;13.38;92.13;102668.56;5014998;28;20041;-69
2021/07/18 04:41:40;;;;;;;19.55;10.80;;;;;;;13.42;92.15;102669.22;5014648;28;20042;-70
2021/07/18 04:44:06;;;;;;;20.50;10.60;;;;;;;13.45;92.41;102674.34;5015291;28;20037;-69
2021/07/18 04:46:32;;;;;;;18.98;10.52;;;;;;;13.49;92.35;102677.63;5014656;28;20471;-69
2021/07/18 04:48:57;;;;;;;20.50;9.38;;;;;;;13.51;92.40;102676.56;5015058;28;20099;-69
2021/07/18 04:51:23;;;;;;;14.57;9.48;;;;;;;13.53;92.13;102677.28;5014613;28;20112;-72
2021/07/18 04:53:48;;;;;;;17.67;8.50;;;;;;;13.55;91.93;102680.72;5014704;28;20030;-69
2021/07/18 04:56:15;;;;;;;20.83;9.43;;;;;;;13.58;91.68;102685.84;5014924;28;20049;-69
2021/07/18 04:58:40;;;;;;;15.95;9.18;;;;;;;13.65;92.09;102682.69;5014359;28;20120;-69
2021/07/18 05:01:07;;;;;;;14.05;8.93;;;;;;;13.70;91.84;102685.88;5014803;28;20560;-69
2021/07/18 05:03:33;;;;;;;19.08;10.18;;;;;;;13.75;92.16;102687.25;5014055;28;20121;-70
2021/07/18 05:05:58;;;;;;;16.20;8.95;;;;;;;13.81;92.05;102685.06;5014390;28;20125;-69
2021/07/18 05:08:24;;;;;;;17.77;8.57;;;;;;;13.85;92.01;102682.06;5014429;28;20084;-69
2021/07/18 05:10:49;;;;;;;17.20;10.00;;;;;;;13.93;92.04;102678.81;5014275;28;20419;-69
2021/07/18 05:13:14;;;;;;;19.73;10.85;;;;;;;14.02;92.08;102683.44;5014556;28;20389;-69
2021/07/18 05:15:40;;;;;;;21.63;9.95;;;;;;;14.13;92.03;102671.91;5013818;28;20525;-69
2021/07/18 05:18:09;;;;;;;18.45;10.70;;;;;;;14.29;92.12;102676.94;5014282;28;20037;-69
2021/07/18 05:20:35;;;;;;;18.10;8.85;;;;;;;14.44;92.34;102677.59;5013766;28;20441;-70
2021/07/18 05:23:01;;;;;;;14.93;8.93;;;;;;;14.56;91.81;102681.97;5013609;28;20026;-70
2021/07/18 05:25:27;;;;;;;16.25;8.00;;;;;;;14.68;91.55;102674.81;5014014;28;20379;-72
2021/07/18 05:27:52;;;;;;;14.93;6.80;;;;;;;14.76;91.20;102676.91;5014532;28;20034;-70
2021/07/18 05:30:17;;;;;;;12.50;6.55;;;;;;;14.84;90.66;102676.28;5014180;28;20038;-70
2021/07/18 05:32:43;;;;;;;10.95;6.40;;;;;;;14.90;90.32;102671.28;5013670;28;20037;-70
2021/07/18 05:35:10;;;;;;;10.60;5.55;;;;;;;14.96;89.71;102676.16;5013913;28;20068;-70
2021/07/18 05:37:35;;;;;;;14.23;5.53;;;;;;;15.04;89.41;102670.16;5013160;28;20072;-70
2021/07/18 05:40:01;;;;;;;13.30;5.25;;;;;;;15.11;89.46;102673.22;5013941;28;20062;-69
2021/07/18 05:42:27;;;;;;;11.80;4.90;;;;;;;15.17;89.38;102675.41;5014014;28;20092;-69
2021/07/18 05:44:52;;;;;;;9.63;4.63;;;;;;;15.24;88.67;102676.63;5012363;28;20026;-69
2021/07/18 05:47:17;;;;;;;10.90;4.40;;;;;;;15.32;88.56;102682.19;5014041;28;20037;-70
2021/07/18 05:49:43;;;;;;;11.93;4.50;;;;;;;15.39;87.97;102673.63;5013246;28;20113;-69
2021/07/18 05:52:08;;;;;;;8.45;3.50;;;;;;;15.46;87.38;102666.78;5013701;28;20488;-70
2021/07/18 05:54:35;;;;;;;6.70;4.00;;;;;;;15.57;87.45;102666.78;5013372;28;20034;-70
2021/07/18 05:57:00;;;;;;;13.10;4.10;;;;;;;15.68;87.20;102666.72;5013646;28;20053;-70
2021/07/18 05:59:25;;;;;;;8.38;3.80;;;;;;;15.81;86.68;102673.78;5013629;28;20042;-70
2021/07/18 06:01:51;;;;;;;8.23;3.38;;;;;;;15.92;86.69;102678.25;5013424;28;20038;-70
2021/07/18 06:04:17;;;;;;;5.95;3.55;;;;;;;16.05;86.25;102673.53;5013537;28;20458;-70
2021/07/18 06:06:42;;;;;;;7.70;3.05;;;;;;;16.21;85.99;102678.44;5012900;28;20038;-69
2021/07/18 06:09:08;;;;;;;6.88;2.80;;;;;;;16.37;85.06;102676.13;5012204;28;20040;-69
2021/07/18 06:11:33;;;;;;;4.75;2.67;;;;;;;16.50;83.50;102686.66;5013015;28;20038;-69
2021/07/18 06:13:59;;;;;;;8.60;3.08;;;;;;;16.65;82.95;102684.47;5013366;28;20030;-68
2021/07/18 06:16:24;;;;;;;6.95;2.67;;;;;;;16.83;81.61;102681.16;5013499;28;20537;-69
2021/07/18 06:18:50;;;;;;;6.75;2.90;;;;;;;16.94;81.61;102675.69;5012615;28;20117;-69
2021/07/18 06:21:15;;;;;;;6.43;2.50;;;;;;;17.04;80.97;102681.13;5013163;28;20026;-69
2021/07/18 06:23:42;;;;;;;8.88;3.05;;;;;;;17.09;81.03;102684.25;5012506;28;20083;-69
2021/07/18 06:26:07;;;;;;;6.93;2.70;;;;;;;17.19;80.22;102690.50;5013092;28;20396;-69
2021/07/18 06:28:33;;;;;;;6.75;2.30;;;;;;;17.27;80.77;102681.72;5013399;28;20033;-69
2021/07/18 06:30:58;;;;;;;4.28;2.30;;;;;;;17.37;80.43;102687.97;5012636;28;20120;-69
2021/07/18 06:33:23;;;;;;;9.45;2.40;;;;;;;17.50;78.90;102682.34;5012339;28;20506;-69
2021/07/18 06:35:49;;;;;;;4.25;2.10;;;;;;;17.66;78.28;102678.25;5012203;28;20466;-69
2021/07/18 06:38:15;;;;;;;4.68;2.08;;;;;;;17.75;78.11;102680.06;5012990;28;20041;-69
2021/07/18 06:40:41;;;;;;;2.70;1.90;;;;;;;17.80;77.55;102680.53;5012504;28;20516;-70
2021/07/18 06:43:06;;;;;;;5.65;2.35;;;;;;;18.00;81.04;102677.84;5013051;28;20030;-69
2021/07/18 06:45:31;;;;;;;4.38;2.30;;;;;;;18.12;76.62;102682.06;5011816;28;20103;-69
2021/07/18 06:47:57;;;;;;;4.50;2.42;;;;;;;18.22;76.49;102690.16;5012232;28;20073;-69
2021/07/18 06:50:22;;;;;;;6.05;2.40;;;;;;;18.28;76.23;102682.31;5012822;28;20030;-69
2021/07/18 06:52:48;;;;;;;5.15;2.10;;;;;;;18.39;75.13;102683.16;5010866;28;20030;-70
2021/07/18 06:55:14;;;;;;;5.30;2.30;;;;;;;18.56;72.75;102684.25;5012710;28;20542;-69
2021/07/18 06:57:46;;;;;;;4.35;2.22;;;;;;;18.78;73.40;102683.00;5012197;28;20128;-70
2021/07/18 07:00:12;;;;;;;3.65;2.00;;;;;;;18.95;73.43;102686.81;5012552;28;20054;-69
2021/07/18 07:02:37;;;;;;;4.50;1.85;;;;;;;19.11;73.34;102684.31;5012521;28;20041;-72
2021/07/18 07:05:03;;;;;;;4.60;2.00;;;;;;;19.24;72.27;102681.22;5012555;28;20036;-70
2021/07/18 07:07:29;;;;;;;7.30;2.25;;;;;;;19.41;71.01;102684.09;5012369;28;20041;-69
2021/07/18 07:09:55;;;;;;;4.45;2.08;;;;;;;19.48;70.76;102672.56;5011994;28;20042;-70
2021/07/18 07:12:20;;;;;;;5.22;1.80;;;;;;;19.59;70.44;102674.19;5012993;28;20092;-69
2021/07/18 07:14:45;;;;;;;4.95;1.92;;;;;;;19.69;69.24;102674.94;5011837;28;20033;-70
2021/07/18 07:17:11;;;;;;;7.18;2.08;;;;;;;19.81;69.40;102685.53;5012341;28;20036;-69
2021/07/18 07:19:36;;;;;;;6.78;2.03;;;;;;;19.97;68.33;102684.81;5012364;28;20030;-69
2021/07/18 07:22:02;;;;;;;3.92;1.88;;;;;;;20.08;68.83;102696.22;5011687;28;20033;-76
2021/07/18 07:24:27;;;;;;;6.70;2.00;;;;;;;20.23;65.60;102691.09;5012624;28;20084;-79
2021/07/18 07:26:53;;;;;;;3.35;1.77;;;;;;;20.42;68.73;102690.06;5011858;28;20080;-76
2021/07/18 07:29:18;;;;;;;3.83;1.77;;;;;;;20.60;66.84;102686.41;5017614;28;20043;-77
2021/07/18 07:31:43;;;;;;;3.40;1.73;;;;;;;20.71;65.50;102682.63;5031192;28;20378;-76
2021/07/18 07:34:09;;;;;;;6.47;2.08;;;;;;;20.74;63.35;102683.16;5031878;28;20492;-77
2021/07/18 07:36:34;;;;;;;7.15;1.92;;;;;;;20.78;64.64;102679.13;5030656;28;20378;-79
2021/07/18 07:39:00;;;;;;;4.55;1.90;;;;;;;20.89;64.84;102685.25;5031501;28;20405;-77
2021/07/18 07:41:25;;;;;;;5.50;2.17;;;;;;;21.00;64.47;102674.13;5031921;28;20029;-78
2021/07/18 07:43:56;;;;;;;7.88;2.03;;;;;;;21.05;62.68;102681.72;5026058;28;20030;-81
2021/07/18 07:46:21;;;;;;;3.58;1.80;;;;;;;21.20;64.19;102680.09;5015136;28;20056;-79
2021/07/18 07:48:47;;;;;;;5.88;2.00;;;;;;;21.38;62.04;102681.81;5015403;28;20418;-77
2021/07/18 07:51:12;;;;;;;3.53;1.50;;;;;;;21.42;60.74;102685.88;5015953;28;20493;-76
2021/07/18 07:53:37;;;;;;;5.72;2.13;;;;;;;21.38;62.80;102679.97;5015172;28;20030;-76
2021/07/18 07:56:04;;;;;;;6.05;1.98;;;;;;;21.34;62.02;102681.31;5014428;28;20259;-78
2021/07/18 07:58:29;;;;;;;3.72;1.90;;;;;;;21.47;61.93;102684.38;5012778;28;20045;-75
2021/07/18 08:00:55;;;;;;;3.42;1.70;;;;;;;21.67;60.23;102689.50;5014911;28;20460;-79
2021/07/18 08:03:20;;;;;;;2.33;1.65;;;;;;;21.75;59.51;102686.81;5015883;28;20033;-77
2021/07/18 08:05:46;;;;;;;1.90;1.42;;;;;;;21.90;60.78;102680.72;5014825;28;20456;-79
2021/07/18 08:08:11;;;;;;;5.20;1.70;;;;;;;21.98;59.03;102686.97;5015375;28;20037;-79
2021/07/18 08:10:38;;;;;;;2.30;1.40;;;;;;;22.07;59.16;102682.41;5015566;28;20053;-76
2021/07/18 08:13:03;;;;;;;5.97;1.70;;;;;;;22.02;60.06;102680.22;5014121;28;20080;-80
2021/07/18 08:15:29;;;;;;;5.30;1.70;;;;;;;22.10;59.71;102689.34;5014883;28;20041;-82
2021/07/18 08:17:54;;;;;;;3.50;1.60;;;;;;;22.22;58.47;102689.84;5014078;28;20121;-88
2021/07/18 08:20:24;;;;;;;5.63;1.73;;;;;;;22.31;58.95;102689.69;5015276;28;20030;-84
2021/07/18 08:22:52;;;;;;;5.57;1.95;;;;;;;22.44;58.29;102694.59;5015011;28;20080;-84
2021/07/18 08:25:20;;;;;;;6.65;1.90;;;;;;;22.63;57.73;102685.22;5015716;28;20034;-82
2021/07/18 08:27:45;;;;;;;4.13;1.70;;;;;;;22.87;57.32;102684.25;5015366;28;20033;-87
2021/07/18 08:30:11;;;;;;;5.60;1.60;;;;;;;23.11;55.63;102678.91;5027306;28;20478;-83
2021/07/18 08:32:37;;;;;;;7.35;1.70;;;;;;;23.22;55.58;102682.06;5028461;28;20045;-80
2021/07/18 08:35:03;;;;;;;7.32;1.88;;;;;;;23.39;54.65;102682.81;5020657;28;20042;-82
2021/07/18 08:37:29;;;;;;;7.32;1.95;;;;;;;23.61;54.70;102677.56;5013594;28;20497;-79
2021/07/18 08:39:54;;;;;;;5.55;1.70;;;;;;;23.74;53.51;102676.97;5012737;28;20065;-79
2021/07/18 08:42:20;;;;;;;4.63;1.83;;;;;;;24.01;53.71;102680.16;5013341;28;20394;-80
2021/07/18 08:44:46;;;;;;;4.70;1.90;;;;;;;24.35;52.51;102678.78;5013870;28;20092;-83
2021/07/18 08:47:11;;;;;;;2.92;1.77;;;;;;;24.61;51.44;102676.47;5014159;28;20033;-80
2021/07/18 08:49:39;;;;;;;3.03;1.80;;;;;;;24.82;51.13;102681.13;5014293;28;20045;-80
2021/07/18 08:52:05;;;;;;;4.38;1.85;;;;;;;25.08;50.11;102676.22;5013973;28;20059;-78
2021/07/18 08:54:34;;;;;;;10.30;2.00;;;;;;;25.33;49.31;102671.28;5012042;28;20076;-80
2021/07/18 08:57:00;;;;;;;6.20;1.77;;;;;;;25.96;47.38;102674.19;5012922;28;20092;-81
2021/07/18 08:59:27;;;;;;;3.40;1.75;;;;;;;26.36;46.97;102679.94;5016307;28;20045;-83
2021/07/18 09:01:53;;;;;;;5.25;1.83;;;;;;;26.91;44.11;102671.81;5013745;28;20041;-85
2021/07/18 09:04:19;;;;;;;5.07;1.88;;;;;;;27.03;43.18;102671.25;5013372;28;20033;-77
2021/07/18 09:06:48;;;;;;;4.60;1.70;;;;;;;27.64;41.83;102666.78;5015772;28;20041;-77
2021/07/18 09:09:20;;;;;;;4.07;1.67;;;;;;;27.77;40.96;102667.59;5015539;28;20096;-79
2021/07/18 09:11:57;;;;;;;6.22;1.60;;;;;;;28.20;40.99;102673.69;5014656;28;20052;-80
2021/07/18 09:14:22;;;;;;;5.18;1.80;;;;;;;28.20;40.43;102666.34;5013024;28;20026;-81
2021/07/18 09:16:50;;;;;;;4.97;2.00;;;;;;;28.61;40.17;102667.94;5014401;28;20540;-82
2021/07/18 09:19:30;;;;;;;4.85;1.63;;;;;;;29.12;38.50;102666.22;5010003;28;20370;-80
2021/07/18 09:22:07;;;;;;;10.48;2.28;;;;;;;29.19;37.83;102671.66;5011115;28;20409;-82
2021/07/18 09:24:52;;;;;;;3.72;1.80;;;;;;;29.16;39.40;102663.88;5014141;28;20061;-84
2021/07/18 09:27:22;;;;;;;3.90;1.80;;;;;;;29.35;37.98;102667.56;5011380;28;20091;-87
2021/07/18 09:29:55;;;;;;;5.00;1.85;;;;;;;29.46;37.43;102666.03;5024236;28;20044;-83
2021/07/18 09:32:23;;;;;;;3.35;1.60;;;;;;;29.85;36.92;102664.06;5034209;28;20025;-85
2021/07/18 09:34:54;;;;;;;3.60;1.85;;;;;;;29.67;38.69;102657.41;5034083;28;20409;-83
2021/07/18 09:37:26;;;;;;;4.35;1.77;;;;;;;30.23;36.35;102658.41;5033147;28;20055;-85
2021/07/18 09:39:55;;;;;;;4.63;2.08;;;;;;;30.38;37.22;102659.91;5033995;28;20753;-83
2021/07/18 09:42:36;;;;;;;4.03;1.70;;;;;;;30.34;36.18;102661.47;5033213;28;20029;-88
2021/07/18 09:45:13;;;;;;;6.90;1.90;;;;;;;29.80;36.65;102653.72;5033272;28;20026;-89
2021/07/18 09:48:01;;;;;;;4.60;1.70;;;;;;;29.63;38.98;102652.59;5033776;28;20029;-82
2021/07/18 09:50:31;;;;;;;5.65;1.95;;;;;;;30.18;38.78;102643.69;5033589;28;20527;-82
2021/07/18 09:53:16;;;;;;;2.90;1.55;;;;;;;30.04;37.42;102659.44;5033662;28;20389;-83
2021/07/18 09:55:59;;;;;;;4.93;1.67;;;;;;;29.88;37.12;102658.94;5026307;28;20021;-86
2021/07/18 09:58:26;;;;;;;3.17;1.63;;;;;;;30.00;38.12;102652.72;5011162;28;20036;-82
2021/07/18 10:00:52;;;;;;;3.33;1.70;;;;;;;30.36;37.08;102654.66;5032072;28;20444;-82
2021/07/18 10:03:22;;;;;;;5.72;1.80;;;;;;;30.40;36.12;102655.91;5020044;28;20093;-82
2021/07/18 10:06:10;;;;;;;5.43;1.70;;;;;;;30.70;36.27;102648.81;5012988;28;20042;-82
2021/07/18 10:08:47;;;;;;;4.15;1.88;;;;;;;31.09;36.49;102654.84;5013271;28;20470;-82
2021/07/18 10:11:15;;;;;;;4.05;1.70;;;;;;;30.82;35.96;102649.69;5013017;28;20061;-82
2021/07/18 10:13:42;;;;;;;3.75;1.50;;;;;;;31.02;35.19;102649.47;5013513;28;20091;-81
2021/07/18 10:16:09;;;;;;;5.40;1.80;;;;;;;31.01;34.23;102658.75;5012561;28;20474;-81
2021/07/18 10:18:35;;;;;;;3.53;1.48;;;;;;;31.32;33.92;102655.97;5013273;28;20670;-81
2021/07/18 10:21:02;;;;;;;4.85;1.48;;;;;;;31.26;34.39;102653.09;5013415;28;20034;-81
2021/07/18 10:23:28;;;;;;;2.88;1.40;;;;;;;31.38;35.10;102655.03;5013093;28;20033;-81
2021/07/18 10:25:53;;;;;;;3.47;1.50;;;;;;;31.16;34.23;102654.72;4984326;28;20038;-81
2021/07/18 10:28:25;;;;;;;3.63;1.60;;;;;;;31.24;33.77;102648.91;5025815;28;20132;-79
2021/07/18 10:30:55;;;;;;;7.50;1.77;;;;;;;31.36;34.38;102647.00;5031601;28;20112;-80
2021/07/18 10:33:21;;;;;;;3.83;1.40;;;;;;;31.58;35.93;102638.25;5025959;28;20117;-81
2021/07/18 10:35:49;;;;;;;3.15;1.50;;;;;;;31.20;33.97;102639.44;5013497;28;20038;-81
2021/07/18 10:38:20;;;;;;;2.92;1.40;;;;;;;31.45;33.26;102642.00;5000006;28;20042;-79
2021/07/18 10:40:51;;;;;;;3.03;1.40;;;;;;;31.52;32.67;102634.50;4993378;28;20035;-80
2021/07/18 10:43:38;;;;;;;3.72;1.50;;;;;;;31.31;34.14;102644.16;4992950;28;20482;-79
2021/07/18 10:46:06;;;;;;;2.08;1.30;;;;;;;31.42;33.89;102639.75;5011076;28;20490;-78
2021/07/18 10:48:46;;;;;;;5.35;1.60;;;;;;;31.59;33.13;102637.16;5012253;28;20033;-82
2021/07/18 10:51:17;;;;;;;7.32;1.70;;;;;;;31.16;34.61;102633.59;5012287;28;20478;-86
2021/07/18 10:53:43;;;;;;;4.60;1.40;;;;;;;31.28;33.08;102631.69;5012933;28;20116;-84
2021/07/18 10:56:09;;;;;;;4.40;1.55;;;;;;;31.53;33.50;102627.94;5012140;28;20116;-84
2021/07/18 10:58:41;;;;;;;4.32;1.80;;;;;;;31.54;33.61;102634.25;5012802;28;20060;-86
2021/07/18 11:01:31;;;;;;;5.45;1.73;;;;;;;31.49;33.02;102632.22;5012486;28;20123;-80
2021/07/18 11:03:57;;;;;;;2.75;1.55;;;;;;;31.50;33.42;102624.81;5012872;28;20055;-81
2021/07/18 11:06:40;;;;;;;2.72;1.70;;;;;;;31.26;34.17;102631.13;4994572;28;20068;-80
2021/07/18 11:09:05;;;;;;;4.50;1.65;;;;;;;30.79;33.39;102630.09;5011542;28;20128;-83
2021/07/18 11:11:40;;;;;;;3.95;1.60;;;;;;;30.67;34.61;102630.88;5011964;28;20440;-84
2021/07/18 11:14:34;;;;;;;7.75;1.60;;;;;;;31.06;35.26;102630.56;5012714;28;20034;-81
2021/07/18 11:17:01;;;;;;;5.32;1.70;;;;;;;31.36;36.28;102626.94;5012467;28;20030;-87
2021/07/18 11:19:37;;;;;;;5.40;1.80;;;;;;;31.74;35.31;102623.78;5009747;28;20034;-84
2021/07/18 11:22:07;;;;;;;5.45;2.10;;;;;;;31.75;34.74;102622.69;5012160;28;20034;-85